createdAt,value
2023-11-30T00:00:44.750Z,98341.54
2023-11-30T00:03:12.280Z,98348.00
2023-11-30T00:05:39.790Z,98343.40
2023-11-30T00:08:07.116Z,98345.23
2023-11-30T00:10:34.490Z,98342.18
2023-11-30T00:13:01.866Z,98338.47
2023-11-30T00:15:29.746Z,98348.09
2023-11-30T00:17:57.203Z,98350.42
2023-11-30T00:20:24.808Z,98350.69
2023-11-30T00:22:52.260Z,98348.38
2023-11-30T00:25:19.755Z,98353.08
2023-11-30T00:27:47.092Z,98361.85
2023-11-30T00:30:15.079Z,98356.39
2023-11-30T00:32:42.523Z,98354.61
2023-11-30T00:35:09.964Z,98360.50
2023-11-30T00:37:38.842Z,98364.95
2023-11-30T00:40:07.162Z,98362.69
2023-11-30T00:42:34.838Z,98360.58
2023-11-30T00:45:02.403Z,98359.23
2023-11-30T00:47:29.861Z,98356.44
2023-11-30T00:49:57.354Z,98352.94
2023-11-30T00:52:24.757Z,98351.39
2023-11-30T00:54:52.154Z,98348.77
2023-11-30T00:57:19.596Z,98344.42
2023-11-30T00:59:47.291Z,98350.09
2023-11-30T01:02:15.086Z,98357.01
2023-11-30T01:04:43.448Z,98350.05
2023-11-30T01:07:10.915Z,98357.77
2023-11-30T01:09:40.259Z,98357.13
2023-11-30T01:12:07.852Z,98363.84
2023-11-30T01:14:35.296Z,98358.19
2023-11-30T01:17:02.919Z,98356.48
2023-11-30T01:19:30.285Z,98356.48
2023-11-30T01:21:57.941Z,98350.70
2023-11-30T01:24:25.824Z,98352.23
2023-11-30T01:26:53.351Z,98356.99
2023-11-30T01:29:20.682Z,98364.05
2023-11-30T01:31:48.095Z,98358.01
2023-11-30T01:34:15.464Z,98356.05
2023-11-30T01:36:42.848Z,98360.38
2023-11-30T01:39:10.428Z,98368.16
2023-11-30T01:41:37.806Z,98362.12
2023-11-30T01:44:05.359Z,98358.88
2023-11-30T01:46:40.312Z,98350.69
2023-11-30T01:49:10.270Z,98362.05
2023-11-30T01:51:39.354Z,98367.24
2023-11-30T01:54:07.062Z,98368.67
2023-11-30T01:56:34.558Z,98366.98
2023-11-30T01:59:02.072Z,98371.71
2023-11-30T02:01:29.433Z,98364.05
2023-11-30T02:03:58.008Z,98361.02
2023-11-30T02:06:25.450Z,98371.38
2023-11-30T02:08:52.928Z,98380.23
2023-11-30T02:11:20.268Z,98372.57
2023-11-30T02:13:47.645Z,98371.26
2023-11-30T02:16:15.070Z,98364.93
2023-11-30T02:18:42.534Z,98361.95
2023-11-30T02:24:03.198Z,98363.21
2023-11-30T02:26:30.793Z,98364.67
2023-11-30T02:28:58.105Z,98366.31
2023-11-30T02:31:25.474Z,98353.41
2023-11-30T02:33:52.976Z,98357.15
2023-11-30T02:36:20.405Z,98358.13
2023-11-30T02:38:47.856Z,98359.35
2023-11-30T02:41:17.473Z,98360.30
2023-11-30T02:43:44.849Z,98370.38
2023-11-30T02:46:12.452Z,98365.54
2023-11-30T02:48:39.930Z,98366.27
2023-11-30T02:51:07.607Z,98378.48
2023-11-30T02:53:35.173Z,98375.29
2023-11-30T02:56:02.614Z,98376.30
2023-11-30T02:58:29.962Z,98379.47
2023-11-30T03:00:58.406Z,98379.45
2023-11-30T03:03:26.310Z,98376.02
2023-11-30T03:05:53.858Z,98367.44
2023-11-30T03:08:21.226Z,98369.83
2023-11-30T03:10:48.616Z,98383.70
2023-11-30T03:13:15.939Z,98379.65
2023-11-30T03:15:47.601Z,98383.48
2023-11-30T03:18:15.597Z,98376.48
2023-11-30T03:20:43.466Z,98380.45
2023-11-30T03:23:10.819Z,98382.63
2023-11-30T03:25:40.928Z,98397.20
2023-11-30T03:28:08.494Z,98394.64
2023-11-30T03:30:36.036Z,98393.70
2023-11-30T03:33:03.769Z,98389.84
2023-11-30T03:35:31.233Z,98389.39
2023-11-30T03:37:58.634Z,98391.35
2023-11-30T03:40:26.170Z,98395.39
2023-11-30T03:42:53.550Z,98394.52
2023-11-30T03:45:23.169Z,98394.96
2023-11-30T03:47:50.688Z,98393.38
2023-11-30T03:50:18.157Z,98401.23
2023-11-30T03:52:45.534Z,98402.59
2023-11-30T03:55:13.173Z,98411.02
2023-11-30T03:57:40.564Z,98400.66
2023-11-30T04:00:13.566Z,98401.41
2023-11-30T04:02:42.129Z,98397.76
2023-11-30T04:05:11.840Z,98401.08
2023-11-30T04:07:40.466Z,98394.55
2023-11-30T04:10:08.645Z,98389.52
2023-11-30T04:12:36.081Z,98389.50
2023-11-30T04:15:05.481Z,98393.77
2023-11-30T04:17:33.019Z,98381.30
2023-11-30T04:20:01.570Z,98386.55
2023-11-30T04:22:29.314Z,98392.59
2023-11-30T04:24:56.638Z,98386.64
2023-11-30T04:27:24.034Z,98389.79
2023-11-30T04:29:51.698Z,98392.02
2023-11-30T04:32:19.312Z,98390.97
2023-11-30T04:34:46.691Z,98390.10
2023-11-30T04:37:14.486Z,98392.90
2023-11-30T04:39:41.909Z,98394.98
2023-11-30T04:42:09.299Z,98397.88
2023-11-30T04:44:36.742Z,98394.85
2023-11-30T04:47:04.211Z,98391.62
2023-11-30T04:49:31.549Z,98387.20
2023-11-30T04:51:58.886Z,98389.88
2023-11-30T04:54:26.352Z,98396.60
2023-11-30T04:56:53.820Z,98409.66
2023-11-30T04:59:21.268Z,98413.96
2023-11-30T05:01:48.980Z,98417.45
2023-11-30T05:04:16.548Z,98409.98
2023-11-30T05:06:43.990Z,98399.90
2023-11-30T05:09:11.745Z,98408.31
2023-11-30T05:11:39.086Z,98414.85
2023-11-30T05:14:06.511Z,98412.45
2023-11-30T05:16:34.221Z,98418.18
2023-11-30T05:19:01.608Z,98410.95
2023-11-30T05:21:28.978Z,98406.19
2023-11-30T05:23:56.686Z,98406.50
2023-11-30T05:26:25.120Z,98411.05
2023-11-30T05:28:53.473Z,98413.66
2023-11-30T05:31:21.070Z,98415.05
2023-11-30T05:33:48.503Z,98409.63
2023-11-30T05:36:15.837Z,98408.58
2023-11-30T05:38:43.253Z,98410.75
2023-11-30T05:41:10.597Z,98402.46
2023-11-30T05:43:38.357Z,98402.21
2023-11-30T05:46:06.512Z,98404.47
2023-11-30T05:48:35.047Z,98399.81
2023-11-30T05:51:02.544Z,98395.00
2023-11-30T05:53:30.246Z,98400.60
2023-11-30T05:55:57.578Z,98402.20
2023-11-30T05:58:24.949Z,98406.30
2023-11-30T06:00:52.618Z,98407.25
2023-11-30T06:03:20.087Z,98413.89
2023-11-30T06:05:47.567Z,98410.34
2023-11-30T06:08:15.180Z,98409.59
2023-11-30T06:10:42.619Z,98415.55
2023-11-30T06:13:10.252Z,98412.16
2023-11-30T06:15:37.881Z,98406.47
2023-11-30T06:18:05.468Z,98405.77
2023-11-30T06:20:32.876Z,98405.84
2023-11-30T06:23:00.294Z,98404.98
2023-11-30T06:25:27.629Z,98410.64
2023-11-30T06:27:54.931Z,98416.38
2023-11-30T06:30:22.302Z,98420.09
2023-11-30T06:32:50.000Z,98416.65
2023-11-30T06:36:25.464Z,98420.69
2023-11-30T06:38:52.939Z,98416.71
2023-11-30T06:41:20.287Z,98415.36
2023-11-30T06:43:47.800Z,98414.82
2023-11-30T06:46:24.464Z,98409.17
2023-11-30T06:48:53.738Z,98407.92
2023-11-30T06:51:21.160Z,98406.92
2023-11-30T06:53:48.569Z,98409.81
2023-11-30T06:56:16.131Z,98410.56
2023-11-30T06:58:43.559Z,98410.17
2023-11-30T07:01:11.100Z,98405.59
2023-11-30T07:03:42.754Z,98408.36
2023-11-30T07:06:11.310Z,98412.79
2023-11-30T07:08:38.830Z,98400.02
2023-11-30T07:11:11.744Z,98403.36
2023-11-30T07:13:39.371Z,98402.20
2023-11-30T07:16:07.896Z,98400.16
2023-11-30T07:18:35.302Z,98396.03
2023-11-30T07:21:03.133Z,98398.46
2023-11-30T07:23:30.451Z,98387.21
2023-11-30T07:25:59.952Z,98389.40
2023-11-30T07:28:27.544Z,98385.45
2023-11-30T07:30:54.907Z,98386.93
2023-11-30T07:33:22.532Z,98387.74
2023-11-30T07:35:49.912Z,98383.52
2023-11-30T07:38:17.301Z,98375.49
2023-11-30T07:40:44.641Z,98379.23
2023-11-30T07:43:12.996Z,98374.73
2023-11-30T07:45:40.396Z,98367.42
2023-11-30T07:48:07.858Z,98368.98
2023-11-30T07:50:35.673Z,98372.23
2023-11-30T07:53:05.358Z,98375.14
2023-11-30T07:55:32.886Z,98378.31
2023-11-30T07:58:00.259Z,98381.38
2023-11-30T08:00:27.622Z,98379.38
2023-11-30T08:02:56.035Z,98378.06
2023-11-30T08:05:25.086Z,98383.15
2023-11-30T08:07:53.434Z,98383.08
2023-11-30T08:10:20.965Z,98375.16
2023-11-30T08:12:48.303Z,98384.73
2023-11-30T08:15:15.720Z,98384.90
2023-11-30T08:17:43.648Z,98389.66
2023-11-30T08:20:15.346Z,98392.60
2023-11-30T08:22:42.814Z,98399.27
2023-11-30T08:25:13.166Z,98403.02
2023-11-30T08:27:40.608Z,98416.19
2023-11-30T08:30:10.977Z,98420.06
2023-11-30T08:32:38.802Z,98420.38
2023-11-30T08:35:07.372Z,98426.55
2023-11-30T08:37:34.833Z,98428.48
2023-11-30T08:40:02.505Z,98414.06
2023-11-30T08:42:30.186Z,98404.99
2023-11-30T08:44:57.530Z,98388.80
2023-11-30T08:47:25.796Z,98385.43
2023-11-30T08:49:53.397Z,98382.09
2023-11-30T08:52:20.774Z,98380.71
2023-11-30T08:54:48.460Z,98378.83
2023-11-30T08:57:16.016Z,98377.48
2023-11-30T08:59:44.925Z,98373.32
2023-11-30T09:02:12.412Z,98379.03
2023-11-30T09:04:40.026Z,98369.68
2023-11-30T09:07:07.755Z,98369.92
2023-11-30T09:09:35.177Z,98373.99
2023-11-30T09:12:03.669Z,98365.88
2023-11-30T09:14:32.121Z,98355.96
2023-11-30T09:17:02.707Z,98352.27
2023-11-30T09:19:30.280Z,98351.64
2023-11-30T09:21:58.399Z,98353.23
2023-11-30T09:24:26.118Z,98344.04
2023-11-30T09:26:54.478Z,98330.85
2023-11-30T09:29:22.000Z,98321.02
2023-11-30T09:31:49.443Z,98308.27
2023-11-30T09:34:16.959Z,98301.75
2023-11-30T09:36:44.630Z,98297.98
2023-11-30T09:39:15.820Z,98300.41
2023-11-30T09:41:43.352Z,98291.08
2023-11-30T09:44:10.789Z,98296.63
2023-11-30T09:46:40.036Z,98284.32
2023-11-30T09:49:10.080Z,98277.35
2023-11-30T09:51:38.249Z,98260.97
2023-11-30T09:54:06.025Z,98281.01
2023-11-30T09:56:33.629Z,98289.73
2023-11-30T09:59:01.021Z,98280.76
2023-11-30T10:01:28.462Z,98260.23
2023-11-30T10:03:56.251Z,98259.23
2023-11-30T10:06:23.812Z,98262.56
2023-11-30T10:08:51.232Z,98257.39
2023-11-30T10:11:21.109Z,98252.14
2023-11-30T10:13:48.682Z,98247.73
2023-11-30T10:16:16.730Z,98236.25
2023-11-30T10:18:44.461Z,98235.16
2023-11-30T10:21:11.970Z,98239.48
2023-11-30T10:23:39.534Z,98239.30
2023-11-30T10:26:07.393Z,98233.88
2023-11-30T10:28:35.144Z,98230.84
2023-11-30T10:31:04.264Z,98227.00
2023-11-30T10:33:34.275Z,98233.84
2023-11-30T10:36:05.984Z,98235.69
2023-11-30T10:38:34.396Z,98234.77
2023-11-30T10:41:08.091Z,98224.27
2023-11-30T10:43:37.302Z,98214.77
2023-11-30T10:46:05.690Z,98208.44
2023-11-30T10:48:33.385Z,98202.05
2023-11-30T10:51:01.837Z,98202.19
2023-11-30T10:53:32.397Z,98203.14
2023-11-30T10:55:59.812Z,98204.45
2023-11-30T10:58:27.592Z,98198.66
2023-11-30T11:01:01.022Z,98195.56
2023-11-30T11:03:29.479Z,98194.91
2023-11-30T11:05:57.528Z,98199.37
2023-11-30T11:08:25.328Z,98198.60
2023-11-30T11:10:53.020Z,98200.39
2023-11-30T11:13:25.408Z,98199.10
2023-11-30T11:16:04.327Z,98197.36
2023-11-30T11:18:32.720Z,98195.23
2023-11-30T11:21:00.783Z,98186.91
2023-11-30T11:23:35.696Z,98199.11
2023-11-30T11:26:05.907Z,98203.27
2023-11-30T11:28:33.337Z,98195.25
2023-11-30T11:31:00.857Z,98194.02
2023-11-30T11:33:29.342Z,98189.98
2023-11-30T11:35:57.233Z,98190.66
2023-11-30T11:38:25.100Z,98187.46
2023-11-30T11:40:54.813Z,98188.16
2023-11-30T11:43:22.296Z,98193.26
2023-11-30T11:45:49.820Z,98191.23
2023-11-30T11:48:17.435Z,98191.35
2023-11-30T11:50:45.019Z,98187.36
2023-11-30T11:53:12.502Z,98179.98
2023-11-30T11:55:40.007Z,98172.95
2023-11-30T11:58:07.418Z,98175.09
2023-11-30T12:00:35.123Z,98168.45
2023-11-30T12:03:07.069Z,98170.70
2023-11-30T12:05:34.754Z,98173.52
2023-11-30T12:08:02.585Z,98178.27
2023-11-30T12:10:33.959Z,98172.85
2023-11-30T12:13:02.658Z,98171.36
2023-11-30T12:15:30.665Z,98167.46
2023-11-30T12:17:58.507Z,98166.23
2023-11-30T12:20:26.162Z,98160.73
2023-11-30T12:22:53.648Z,98163.92
2023-11-30T12:25:21.386Z,98156.01
2023-11-30T12:27:49.047Z,98148.71
2023-11-30T12:30:16.625Z,98147.54
2023-11-30T12:32:44.144Z,98145.45
2023-11-30T12:35:11.711Z,98142.58
2023-11-30T12:37:39.432Z,98146.02
2023-11-30T12:40:11.508Z,98141.95
2023-11-30T12:42:39.124Z,98130.77
2023-11-30T12:45:08.532Z,98129.77
2023-11-30T12:47:36.068Z,98131.33
2023-11-30T12:50:06.164Z,98127.45
2023-11-30T12:52:33.643Z,98123.58
2023-11-30T12:55:01.712Z,98119.35
2023-11-30T12:57:29.656Z,98107.69
2023-11-30T12:59:57.112Z,98108.08
2023-11-30T13:02:24.671Z,98115.63
2023-11-30T13:04:52.774Z,98105.80
2023-11-30T13:07:20.243Z,98105.83
2023-11-30T13:09:47.796Z,98100.94
2023-11-30T13:12:15.467Z,98097.05
2023-11-30T13:14:42.909Z,98091.20
2023-11-30T13:17:10.450Z,98084.98
2023-11-30T13:19:38.149Z,98083.17
2023-11-30T13:22:06.564Z,98083.11
2023-11-30T13:24:34.102Z,98081.90
2023-11-30T13:27:01.761Z,98078.17
2023-11-30T13:29:29.177Z,98075.66
2023-11-30T13:31:56.625Z,98067.53
2023-11-30T13:34:24.077Z,98066.55
2023-11-30T13:36:51.707Z,98067.29
2023-11-30T13:39:19.145Z,98069.89
2023-11-30T13:41:46.708Z,98079.63
2023-11-30T13:44:14.957Z,98078.63
2023-11-30T13:46:43.062Z,98066.91
2023-11-30T13:49:14.833Z,98069.33
2023-11-30T13:51:42.646Z,98068.55
2023-11-30T13:54:10.312Z,98068.75
2023-11-30T13:56:39.234Z,98071.87
2023-11-30T13:59:07.097Z,98072.30
2023-11-30T14:01:35.280Z,98068.46
2023-11-30T14:04:05.302Z,98060.52
2023-11-30T14:06:33.426Z,98058.06
2023-11-30T14:09:00.896Z,98046.38
2023-11-30T14:11:28.591Z,98041.04
2023-11-30T14:13:56.035Z,98036.67
2023-11-30T14:16:23.667Z,98032.15
2023-11-30T14:18:51.770Z,98033.77
2023-11-30T14:21:19.796Z,98030.45
2023-11-30T14:23:48.132Z,98031.89
2023-11-30T14:26:16.469Z,98032.32
2023-11-30T14:28:49.162Z,98022.17
2023-11-30T14:31:19.804Z,98019.88
2023-11-30T14:33:48.620Z,98024.05
2023-11-30T14:36:16.614Z,98015.94
2023-11-30T14:38:45.103Z,98009.20
2023-11-30T14:41:12.582Z,98006.18
2023-11-30T14:43:40.176Z,98006.41
2023-11-30T14:46:07.823Z,97999.80
2023-11-30T14:48:35.391Z,97997.80
2023-11-30T14:51:03.728Z,98008.42
2023-11-30T14:53:31.686Z,98013.91
2023-11-30T14:55:59.207Z,98018.56
2023-11-30T14:58:26.683Z,98010.91
2023-11-30T15:00:54.255Z,98012.48
2023-11-30T15:03:22.082Z,98006.19
2023-11-30T15:05:49.643Z,98000.95
2023-11-30T15:08:18.467Z,97988.16
2023-11-30T15:10:49.620Z,97989.20
2023-11-30T15:13:18.165Z,97989.75
2023-11-30T15:15:46.295Z,97978.84
2023-11-30T15:18:13.916Z,97981.41
2023-11-30T15:20:43.737Z,97974.77
2023-11-30T15:23:11.125Z,97971.70
2023-11-30T15:25:39.869Z,97975.30
2023-11-30T15:28:11.284Z,97970.36
2023-11-30T15:30:39.510Z,97964.92
2023-11-30T15:33:08.415Z,97963.55
2023-11-30T15:35:37.157Z,97962.17
2023-11-30T15:38:05.524Z,97961.00
2023-11-30T15:40:33.101Z,97964.77
2023-11-30T15:43:00.654Z,97953.66
2023-11-30T15:45:28.689Z,97945.13
2023-11-30T15:47:56.376Z,97943.25
2023-11-30T15:50:25.892Z,97941.89
2023-11-30T15:52:53.430Z,97938.83
2023-11-30T15:55:20.961Z,97939.68
2023-11-30T15:57:49.030Z,97929.26
2023-11-30T16:00:17.545Z,97929.26
2023-11-30T16:02:48.425Z,97934.74
2023-11-30T16:05:16.490Z,97932.02
2023-11-30T16:07:44.538Z,97920.73
2023-11-30T16:10:12.382Z,97915.29
2023-11-30T16:12:40.080Z,97906.08
2023-11-30T16:15:09.448Z,97903.84
2023-11-30T16:17:36.960Z,97893.09
2023-11-30T16:20:11.355Z,97886.77
2023-11-30T16:22:40.391Z,97889.85
2023-11-30T16:25:09.020Z,97891.91
2023-11-30T16:27:36.534Z,97887.80
2023-11-30T16:30:05.430Z,97889.54
2023-11-30T16:32:33.222Z,97887.14
2023-11-30T16:35:04.592Z,97888.01
2023-11-30T16:37:32.164Z,97878.10
2023-11-30T16:39:59.971Z,97874.50
2023-11-30T16:42:29.343Z,97876.73
2023-11-30T16:44:57.280Z,97874.34
2023-11-30T16:47:25.108Z,97862.05
2023-11-30T16:49:52.775Z,97860.00
2023-11-30T16:52:20.329Z,97857.77
2023-11-30T16:54:48.109Z,97851.46
2023-11-30T16:57:15.920Z,97841.55
2023-11-30T16:59:43.522Z,97830.64
2023-11-30T17:02:11.527Z,97828.75
2023-11-30T17:04:39.359Z,97829.95
2023-11-30T17:07:07.128Z,97837.13
2023-11-30T17:09:34.766Z,97838.33
2023-11-30T17:12:02.497Z,97830.98
2023-11-30T17:14:29.978Z,97827.91
2023-11-30T17:17:02.216Z,97829.11
2023-11-30T17:19:29.820Z,97818.50
2023-11-30T17:21:57.497Z,97814.58
2023-11-30T17:24:25.576Z,97818.00
2023-11-30T17:26:57.367Z,97816.13
2023-11-30T17:29:24.953Z,97818.35
2023-11-30T17:31:52.859Z,97817.67
2023-11-30T17:34:20.721Z,97809.64
2023-11-30T17:36:48.977Z,97803.98
2023-11-30T17:39:17.821Z,97799.89
2023-11-30T17:41:45.889Z,97793.73
2023-11-30T17:44:13.517Z,97792.20
2023-11-30T17:46:42.919Z,97792.71
2023-11-30T17:49:11.218Z,97795.44
2023-11-30T17:51:39.183Z,97802.45
2023-11-30T17:54:06.805Z,97806.55
2023-11-30T17:56:34.391Z,97800.57
2023-11-30T17:59:01.887Z,97789.27
2023-11-30T18:01:30.263Z,97788.77
2023-11-30T18:03:57.962Z,97777.66
2023-11-30T18:06:26.945Z,97781.09
2023-11-30T18:08:55.482Z,97769.64
2023-11-30T18:11:23.247Z,97760.07
2023-11-30T18:13:51.093Z,97759.73
2023-11-30T18:16:19.055Z,97754.25
2023-11-30T18:18:47.394Z,97752.38
2023-11-30T18:21:15.229Z,97752.02
2023-11-30T18:23:42.892Z,97762.45
2023-11-30T18:26:10.835Z,97767.77
2023-11-30T18:28:38.500Z,97763.31
2023-11-30T18:31:16.313Z,97743.48
2023-11-30T18:33:49.880Z,97730.52
2023-11-30T18:36:17.808Z,97727.08
2023-11-30T18:38:50.646Z,97731.86
2023-11-30T18:41:20.837Z,97728.79
2023-11-30T18:43:49.525Z,97727.08
2023-11-30T18:46:17.630Z,97732.71
2023-11-30T18:48:46.850Z,97727.42
2023-11-30T18:51:14.737Z,97729.13
2023-11-30T18:56:06.342Z,97727.23
2023-11-30T18:58:33.997Z,97725.88
2023-11-30T19:01:01.808Z,97712.73
2023-11-30T19:03:29.540Z,97698.89
2023-11-30T19:05:57.729Z,97705.05
2023-11-30T19:08:25.518Z,97711.18
2023-11-30T19:10:53.367Z,97718.70
2023-11-30T19:13:21.090Z,97716.30
2023-11-30T19:15:51.314Z,97714.09
2023-11-30T19:18:19.137Z,97716.31
2023-11-30T19:20:46.816Z,97706.05
2023-11-30T19:23:14.620Z,97710.84
2023-11-30T19:25:44.233Z,97699.06
2023-11-30T19:28:12.078Z,97701.27
2023-11-30T19:30:40.181Z,97704.52
2023-11-30T19:33:08.250Z,97699.90
2023-11-30T19:35:36.923Z,97705.38
2023-11-30T19:38:04.802Z,97706.40
2023-11-30T19:40:32.679Z,97703.84
2023-11-30T19:43:00.580Z,97700.76
2023-11-30T19:45:28.500Z,97696.14
2023-11-30T19:47:56.377Z,97685.20
2023-11-30T19:50:24.612Z,97679.06
2023-11-30T19:52:52.385Z,97682.98
2023-11-30T19:55:20.246Z,97687.77
2023-11-30T19:57:48.274Z,97679.91
2023-11-30T20:00:16.689Z,97683.50
2023-11-30T20:02:44.609Z,97686.22
2023-11-30T20:05:13.882Z,97690.33
2023-11-30T20:07:41.979Z,97688.96
2023-11-30T20:10:12.157Z,97696.31
2023-11-30T20:12:42.707Z,97697.67
2023-11-30T20:15:10.682Z,97693.59
2023-11-30T20:17:38.968Z,97688.29
2023-11-30T20:20:07.625Z,97691.02
2023-11-30T20:22:35.339Z,97689.64
2023-11-30T20:25:03.640Z,97681.10
2023-11-30T20:27:31.579Z,97675.47
2023-11-30T20:30:00.258Z,97668.81
2023-11-30T20:32:28.128Z,97660.79
2023-11-30T20:34:55.835Z,97649.85
2023-11-30T20:37:23.704Z,97654.95
2023-11-30T20:39:51.393Z,97654.27
2023-11-30T20:42:19.042Z,97653.59
2023-11-30T20:44:52.799Z,97659.73
2023-11-30T20:47:30.086Z,97658.20
2023-11-30T20:49:57.793Z,97658.20
2023-11-30T20:52:25.326Z,97652.92
2023-11-30T20:54:53.376Z,97650.00
2023-11-30T20:57:20.884Z,97637.38
2023-11-30T20:59:48.348Z,97626.27
2023-11-30T21:05:01.366Z,97625.08
2023-11-30T21:07:28.985Z,97631.40
2023-11-30T21:09:57.078Z,97626.10
2023-11-30T21:12:24.820Z,97625.58
2023-11-30T21:14:52.422Z,97626.95
2023-11-30T21:17:22.264Z,97636.50
2023-11-30T21:19:49.790Z,97629.51
2023-11-30T21:22:17.462Z,97616.18
2023-11-30T21:24:46.225Z,97614.31
2023-11-30T21:27:14.370Z,97605.26
2023-11-30T21:29:41.877Z,97598.08
2023-11-30T21:32:10.371Z,97596.89
2023-11-30T21:34:38.567Z,97589.72
2023-11-30T21:37:06.184Z,97584.93
2023-11-30T21:39:35.335Z,97585.79
2023-11-30T21:42:04.076Z,97595.17
2023-11-30T21:44:31.636Z,97598.44
2023-11-30T21:46:59.234Z,97595.86
2023-11-30T21:49:26.694Z,97599.61
2023-11-30T21:51:54.625Z,97592.77
2023-11-30T21:54:22.386Z,97585.10
2023-11-30T21:56:50.340Z,97575.35
2023-11-30T21:59:18.954Z,97565.28
2023-11-30T22:01:47.031Z,97562.36
2023-11-30T22:04:14.905Z,97555.02
2023-11-30T22:06:44.172Z,97550.73
2023-11-30T22:09:11.657Z,97541.50
2023-11-30T22:11:44.150Z,97539.98
2023-11-30T22:14:12.007Z,97532.96
2023-11-30T22:16:41.733Z,97525.27
2023-11-30T22:19:09.948Z,97523.73
2023-11-30T22:21:37.620Z,97517.93
2023-11-30T22:24:05.699Z,97521.01
2023-11-30T22:26:33.137Z,97516.55
2023-11-30T22:29:02.198Z,97514.33
2023-11-30T22:31:34.719Z,97516.38
2023-11-30T22:34:02.433Z,97504.95
2023-11-30T22:36:30.103Z,97507.16
2023-11-30T22:38:58.625Z,97507.16
2023-11-30T22:41:26.314Z,97515.35
2023-11-30T22:43:54.151Z,97515.54
2023-11-30T22:46:21.952Z,97517.41
2023-11-30T22:48:50.353Z,97516.73
2023-11-30T22:51:18.594Z,97516.88
2023-11-30T22:53:46.743Z,97517.21
2023-11-30T22:56:21.362Z,97511.09
2023-11-30T22:58:50.106Z,97508.52
2023-11-30T23:01:18.217Z,97509.03
2023-11-30T23:03:46.206Z,97507.32
2023-11-30T23:06:14.705Z,97503.21
2023-11-30T23:08:42.745Z,97498.26
2023-11-30T23:11:10.377Z,97500.98
2023-11-30T23:13:37.979Z,97504.24
2023-11-30T23:16:06.117Z,97503.55
2023-11-30T23:18:33.655Z,97505.61
2023-11-30T23:21:01.417Z,97509.39
2023-11-30T23:23:29.170Z,97497.25
2023-11-30T23:25:56.693Z,97483.44
2023-11-30T23:28:24.357Z,97483.77
2023-11-30T23:30:51.882Z,97481.05
2023-11-30T23:33:19.573Z,97478.49
2023-11-30T23:35:47.564Z,97480.72
2023-11-30T23:38:14.982Z,97472.86
2023-11-30T23:40:42.399Z,97465.86
2023-11-30T23:43:10.219Z,97469.60
2023-11-30T23:45:37.789Z,97477.96
2023-11-30T23:48:05.742Z,97483.95
2023-11-30T23:50:33.474Z,97481.90
2023-11-30T23:53:01.099Z,97480.88
2023-11-30T23:55:28.566Z,97480.70
2023-11-30T23:57:56.135Z,97483.25
